sensor_id;sensor_type;location;lat;lon;timestamp;pressure;altitude;pressure_sealevel;temperature;humidity
63493;BME280;49638;47.526;10.028;2024-03-22T00:02:49;92380.72;;;7.58;84.12
63493;BME280;49638;47.526;10.028;2024-03-22T00:05:49;92360.53;;;7.52;83.99
63493;BME280;49638;47.526;10.028;2024-03-22T00:08:49;92375.06;;;7.62;84.11
63493;BME280;49638;47.526;10.028;2024-03-22T00:11:49;92385.59;;;7.62;84.35
63493;BME280;49638;47.526;10.028;2024-03-22T00:14:50;92375.66;;;7.64;84.57
63493;BME280;49638;47.526;10.028;2024-03-22T00:17:52;92363.75;;;7.54;84.74
63493;BME280;49638;47.526;10.028;2024-03-22T00:20:52;92367.75;;;7.64;84.46
63493;BME280;49638;47.526;10.028;2024-03-22T00:23:53;92366.53;;;7.66;84.39
63493;BME280;49638;47.526;10.028;2024-03-22T00:26:53;92363.28;;;7.64;84.79
63493;BME280;49638;47.526;10.028;2024-03-22T00:29:53;92357.47;;;7.55;84.82
63493;BME280;49638;47.526;10.028;2024-03-22T00:32:53;92360.53;;;7.52;84.67
63493;BME280;49638;47.526;10.028;2024-03-22T00:35:54;92358.91;;;7.51;84.97
63493;BME280;49638;47.526;10.028;2024-03-22T00:38:54;92355.50;;;7.44;84.79
63493;BME280;49638;47.526;10.028;2024-03-22T00:41:54;92364.75;;;7.53;84.94
63493;BME280;49638;47.526;10.028;2024-03-22T00:44:54;92351.03;;;7.51;84.72
63493;BME280;49638;47.526;10.028;2024-03-22T00:47:55;92354.84;;;7.55;84.52
63493;BME280;49638;47.526;10.028;2024-03-22T00:50:55;92340.69;;;7.50;85.38
63493;BME280;49638;47.526;10.028;2024-03-22T00:53:55;92337.47;;;7.54;85.72
63493;BME280;49638;47.526;10.028;2024-03-22T00:56:56;92340.50;;;7.51;86.05
63493;BME280;49638;47.526;10.028;2024-03-22T00:59:56;92334.06;;;7.47;86.15
63493;BME280;49638;47.526;10.028;2024-03-22T01:02:56;92332.41;;;7.46;86.17
63493;BME280;49638;47.526;10.028;2024-03-22T01:05:57;92331.84;;;7.44;86.39
63493;BME280;49638;47.526;10.028;2024-03-22T01:08:57;92334.06;;;7.41;86.75
63493;BME280;49638;47.526;10.028;2024-03-22T01:11:57;92333.84;;;7.42;87.32
63493;BME280;49638;47.526;10.028;2024-03-22T01:14:58;92324.53;;;7.46;86.75
63493;BME280;49638;47.526;10.028;2024-03-22T01:17:58;92329.97;;;7.51;86.61
63493;BME280;49638;47.526;10.028;2024-03-22T01:20:58;92326.72;;;7.56;86.19
63493;BME280;49638;47.526;10.028;2024-03-22T01:23:58;92325.50;;;7.58;85.61
63493;BME280;49638;47.526;10.028;2024-03-22T01:26:59;92315.16;;;7.57;85.46
63493;BME280;49638;47.526;10.028;2024-03-22T01:29:59;92317.22;;;7.55;85.64
63493;BME280;49638;47.526;10.028;2024-03-22T01:32:59;92302.03;;;7.50;85.48
63493;BME280;49638;47.526;10.028;2024-03-22T01:35:59;92301.06;;;7.51;85.24
63493;BME280;49638;47.526;10.028;2024-03-22T01:39:00;92298.44;;;7.45;85.84
63493;BME280;49638;47.526;10.028;2024-03-22T01:42:00;92296.47;;;7.33;85.89
63493;BME280;49638;47.526;10.028;2024-03-22T01:45:00;92297.09;;;7.29;85.73
63493;BME280;49638;47.526;10.028;2024-03-22T01:48:01;92300.97;;;7.20;85.79
63493;BME280;49638;47.526;10.028;2024-03-22T01:51:02;92297.56;;;7.13;86.14
63493;BME280;49638;47.526;10.028;2024-03-22T01:54:03;92293.34;;;7.05;86.13
63493;BME280;49638;47.526;10.028;2024-03-22T01:57:03;92276.97;;;6.96;86.06
63493;BME280;49638;47.526;10.028;2024-03-22T02:00:04;92288.06;;;7.11;86.01
63493;BME280;49638;47.526;10.028;2024-03-22T02:03:05;92276.53;;;7.13;85.89
63493;BME280;49638;47.526;10.028;2024-03-22T02:06:05;92285.03;;;7.15;85.85
63493;BME280;49638;47.526;10.028;2024-03-22T02:09:05;92274.72;;;7.06;85.76
63493;BME280;49638;47.526;10.028;2024-03-22T02:12:06;92286.88;;;7.07;86.23
63493;BME280;49638;47.526;10.028;2024-03-22T02:15:07;92295.16;;;7.04;86.42
63493;BME280;49638;47.526;10.028;2024-03-22T02:18:08;92283.63;;;7.05;86.49
63493;BME280;49638;47.526;10.028;2024-03-22T02:21:09;92282.19;;;7.09;86.59
63493;BME280;49638;47.526;10.028;2024-03-22T02:24:10;92293.50;;;7.17;86.46
63493;BME280;49638;47.526;10.028;2024-03-22T02:27:10;92286.41;;;7.24;86.79
63493;BME280;49638;47.526;10.028;2024-03-22T02:30:10;92286.59;;;7.29;86.76
63493;BME280;49638;47.526;10.028;2024-03-22T02:33:10;92288.19;;;7.30;86.28
63493;BME280;49638;47.526;10.028;2024-03-22T02:36:11;92277.28;;;7.26;86.41
63493;BME280;49638;47.526;10.028;2024-03-22T02:39:11;92256.13;;;7.15;86.34
63493;BME280;49638;47.526;10.028;2024-03-22T02:42:11;92251.50;;;7.03;86.53
63493;BME280;49638;47.526;10.028;2024-03-22T02:45:11;92247.31;;;6.89;86.47
63493;BME280;49638;47.526;10.028;2024-03-22T02:48:12;92238.84;;;6.80;86.91
63493;BME280;49638;47.526;10.028;2024-03-22T02:51:12;92239.06;;;6.72;87.32
63493;BME280;49638;47.526;10.028;2024-03-22T02:54:12;92231.56;;;6.76;86.89
63493;BME280;49638;47.526;10.028;2024-03-22T02:57:12;92233.22;;;6.77;86.89
63493;BME280;49638;47.526;10.028;2024-03-22T03:00:13;92231.41;;;6.71;86.96
63493;BME280;49638;47.526;10.028;2024-03-22T03:03:13;92222.50;;;6.72;86.50
63493;BME280;49638;47.526;10.028;2024-03-22T03:06:13;92208.41;;;6.66;86.27
63493;BME280;49638;47.526;10.028;2024-03-22T03:09:15;92217.28;;;6.65;86.23
63493;BME280;49638;47.526;10.028;2024-03-22T03:12:15;92218.53;;;6.49;86.05
63493;BME280;49638;47.526;10.028;2024-03-22T03:15:16;92213.88;;;6.45;86.39
63493;BME280;49638;47.526;10.028;2024-03-22T03:18:16;92212.06;;;6.45;86.35
63493;BME280;49638;47.526;10.028;2024-03-22T03:21:16;92221.56;;;6.46;86.76
63493;BME280;49638;47.526;10.028;2024-03-22T03:24:16;92219.94;;;6.45;86.44
63493;BME280;49638;47.526;10.028;2024-03-22T03:27:17;92224.59;;;6.50;86.21
63493;BME280;49638;47.526;10.028;2024-03-22T03:30:17;92223.19;;;6.47;86.12
63493;BME280;49638;47.526;10.028;2024-03-22T03:33:17;92228.66;;;6.46;86.16
63493;BME280;49638;47.526;10.028;2024-03-22T03:36:17;92231.88;;;6.41;85.96
63493;BME280;49638;47.526;10.028;2024-03-22T03:39:18;92222.00;;;6.30;86.26
63493;BME280;49638;47.526;10.028;2024-03-22T03:42:18;92218.59;;;6.23;86.81
63493;BME280;49638;47.526;10.028;2024-03-22T03:45:18;92200.84;;;6.11;86.79
63493;BME280;49638;47.526;10.028;2024-03-22T03:48:18;92212.16;;;6.05;86.85
63493;BME280;49638;47.526;10.028;2024-03-22T03:51:19;92210.53;;;6.04;87.42
63493;BME280;49638;47.526;10.028;2024-03-22T03:54:19;92196.19;;;6.00;87.46
63493;BME280;49638;47.526;10.028;2024-03-22T03:57:21;92196.81;;;6.02;87.44
63493;BME280;49638;47.526;10.028;2024-03-22T04:00:21;92195.59;;;6.11;87.30
63493;BME280;49638;47.526;10.028;2024-03-22T04:03:23;92183.47;;;6.04;86.76
63493;BME280;49638;47.526;10.028;2024-03-22T04:06:23;92191.16;;;6.05;87.12
63493;BME280;49638;47.526;10.028;2024-03-22T04:09:23;92185.13;;;5.98;87.36
63493;BME280;49638;47.526;10.028;2024-03-22T04:12:24;92194.19;;;6.02;87.57
63493;BME280;49638;47.526;10.028;2024-03-22T04:15:24;92186.91;;;6.04;87.56
63493;BME280;49638;47.526;10.028;2024-03-22T04:18:25;92190.34;;;6.11;87.38
63493;BME280;49638;47.526;10.028;2024-03-22T04:21:25;92189.53;;;6.11;87.51
63493;BME280;49638;47.526;10.028;2024-03-22T04:24:26;92190.75;;;6.15;87.17
63493;BME280;49638;47.526;10.028;2024-03-22T04:27:26;92189.09;;;6.21;87.08
63493;BME280;49638;47.526;10.028;2024-03-22T04:30:26;92185.50;;;6.22;87.08
63493;BME280;49638;47.526;10.028;2024-03-22T04:33:27;92185.88;;;6.25;87.03
63493;BME280;49638;47.526;10.028;2024-03-22T04:36:27;92178.03;;;6.19;86.67
63493;BME280;49638;47.526;10.028;2024-03-22T04:39:27;92183.06;;;6.20;86.52
63493;BME280;49638;47.526;10.028;2024-03-22T04:42:28;92187.50;;;6.20;86.62
63493;BME280;49638;47.526;10.028;2024-03-22T04:45:28;92180.66;;;6.19;86.79
63493;BME280;49638;47.526;10.028;2024-03-22T04:48:28;92181.84;;;6.16;86.65
63493;BME280;49638;47.526;10.028;2024-03-22T04:51:28;92178.63;;;6.07;86.57
63493;BME280;49638;47.526;10.028;2024-03-22T04:54:29;92179.88;;;5.98;87.13
63493;BME280;49638;47.526;10.028;2024-03-22T04:57:29;92175.22;;;5.93;87.46
63493;BME280;49638;47.526;10.028;2024-03-22T05:00:29;92179.03;;;5.91;87.36
63493;BME280;49638;47.526;10.028;2024-03-22T05:03:30;92160.06;;;5.89;87.72
63493;BME280;49638;47.526;10.028;2024-03-22T05:06:30;92160.50;;;5.92;87.58
63493;BME280;49638;47.526;10.028;2024-03-22T05:09:30;92153.22;;;5.88;87.84
63493;BME280;49638;47.526;10.028;2024-03-22T05:12:32;92150.59;;;5.88;87.87
63493;BME280;49638;47.526;10.028;2024-03-22T05:15:32;92167.75;;;5.97;87.82
63493;BME280;49638;47.526;10.028;2024-03-22T05:18:32;92156.25;;;5.91;87.72
63493;BME280;49638;47.526;10.028;2024-03-22T05:21:33;92167.75;;;5.97;87.77
63493;BME280;49638;47.526;10.028;2024-03-22T05:24:33;92158.88;;;5.98;87.77
63493;BME280;49638;47.526;10.028;2024-03-22T05:27:34;92157.25;;;6.04;87.69
63493;BME280;49638;47.526;10.028;2024-03-22T05:30:34;92156.03;;;6.06;87.85
63493;BME280;49638;47.526;10.028;2024-03-22T05:33:35;92165.09;;;6.10;87.82
63493;BME280;49638;47.526;10.028;2024-03-22T05:36:35;92147.75;;;6.09;87.49
63493;BME280;49638;47.526;10.028;2024-03-22T05:39:35;92154.81;;;6.15;87.65
63493;BME280;49638;47.526;10.028;2024-03-22T05:42:35;92155.63;;;6.16;87.36
63493;BME280;49638;47.526;10.028;2024-03-22T05:45:36;92151.78;;;6.19;87.50
63493;BME280;49638;47.526;10.028;2024-03-22T05:48:36;92153.38;;;6.20;87.31
63493;BME280;49638;47.526;10.028;2024-03-22T05:51:36;92144.72;;;6.12;87.45
63493;BME280;49638;47.526;10.028;2024-03-22T05:54:36;92151.78;;;6.19;87.45
63493;BME280;49638;47.526;10.028;2024-03-22T05:57:37;92148.16;;;6.13;87.82
63493;BME280;49638;47.526;10.028;2024-03-22T06:00:37;92145.13;;;6.16;87.78
63493;BME280;49638;47.526;10.028;2024-03-22T06:03:38;92136.06;;;6.12;88.00
63493;BME280;49638;47.526;10.028;2024-03-22T06:06:38;92149.94;;;6.26;88.29
63493;BME280;49638;47.526;10.028;2024-03-22T06:09:38;92147.50;;;6.31;88.44
63493;BME280;49638;47.526;10.028;2024-03-22T06:12:45;92133.78;;;6.29;88.69
63493;BME280;49638;47.526;10.028;2024-03-22T06:15:50;92146.03;;;6.48;89.14
63493;BME280;49638;47.526;10.028;2024-03-22T06:18:51;92147.75;;;6.74;89.44
63493;BME280;49638;47.526;10.028;2024-03-22T06:21:51;92154.84;;;7.05;88.98
63493;BME280;49638;47.526;10.028;2024-03-22T06:24:52;92139.38;;;7.22;88.09
63493;BME280;49638;47.526;10.028;2024-03-22T06:27:53;92132.81;;;7.38;87.92
63493;BME280;49638;47.526;10.028;2024-03-22T06:30:53;92132.56;;;7.46;87.51
63493;BME280;49638;47.526;10.028;2024-03-22T06:33:54;92138.75;;;7.58;87.53
63493;BME280;49638;47.526;10.028;2024-03-22T06:36:54;92129.56;;;7.68;87.73
63493;BME280;49638;47.526;10.028;2024-03-22T06:39:54;92129.53;;;7.93;86.99
63493;BME280;49638;47.526;10.028;2024-03-22T06:42:55;92128.56;;;8.12;86.79
63493;BME280;49638;47.526;10.028;2024-03-22T06:45:55;92132.72;;;8.20;85.96
63493;BME280;49638;47.526;10.028;2024-03-22T06:48:57;92137.56;;;8.23;85.79
63493;BME280;49638;47.526;10.028;2024-03-22T06:51:57;92136.69;;;8.29;85.74
63493;BME280;49638;47.526;10.028;2024-03-22T06:54:57;92128.28;;;8.39;85.58
63493;BME280;49638;47.526;10.028;2024-03-22T06:57:57;92138.69;;;8.52;85.17
63493;BME280;49638;47.526;10.028;2024-03-22T07:00:58;92132.97;;;8.73;84.68
63493;BME280;49638;47.526;10.028;2024-03-22T07:03:58;92129.19;;;8.99;84.40
63493;BME280;49638;47.526;10.028;2024-03-22T07:06:59;92130.75;;;9.19;83.45
63493;BME280;49638;47.526;10.028;2024-03-22T07:09:59;92135.41;;;9.35;82.85
63493;BME280;49638;47.526;10.028;2024-03-22T07:12:59;92127.06;;;9.50;82.43
63493;BME280;49638;47.526;10.028;2024-03-22T07:16:00;92121.81;;;9.62;82.19
63493;BME280;49638;47.526;10.028;2024-03-22T07:19:00;92120.13;;;9.79;82.12
63493;BME280;49638;47.526;10.028;2024-03-22T07:22:00;92116.91;;;9.89;80.56
63493;BME280;49638;47.526;10.028;2024-03-22T07:25:01;92109.78;;;10.01;80.47
63493;BME280;49638;47.526;10.028;2024-03-22T07:28:01;92109.00;;;10.12;80.29
63493;BME280;49638;47.526;10.028;2024-03-22T07:31:01;92108.19;;;10.24;80.21
63493;BME280;49638;47.526;10.028;2024-03-22T07:34:01;92103.50;;;10.37;79.37
63493;BME280;49638;47.526;10.028;2024-03-22T07:37:02;92110.13;;;10.52;79.34
63493;BME280;49638;47.526;10.028;2024-03-22T07:40:04;92111.25;;;10.56;78.22
63493;BME280;49638;47.526;10.028;2024-03-22T07:43:05;92092.09;;;10.49;77.67
63493;BME280;49638;47.526;10.028;2024-03-22T07:46:09;92112.50;;;10.65;77.19
63493;BME280;49638;47.526;10.028;2024-03-22T07:49:09;92113.91;;;10.68;77.06
63493;BME280;49638;47.526;10.028;2024-03-22T07:52:10;92108.47;;;10.74;76.96
63493;BME280;49638;47.526;10.028;2024-03-22T07:55:10;92109.47;;;10.85;76.92
63493;BME280;49638;47.526;10.028;2024-03-22T07:58:10;92108.53;;;10.91;76.69
63493;BME280;49638;47.526;10.028;2024-03-22T08:01:11;92107.94;;;11.01;77.06
63493;BME280;49638;47.526;10.028;2024-03-22T08:04:11;92103.38;;;11.13;76.68
63493;BME280;49638;47.526;10.028;2024-03-22T08:07:11;92099.47;;;11.16;76.59
63493;BME280;49638;47.526;10.028;2024-03-22T08:10:11;92088.75;;;11.22;76.46
63493;BME280;49638;47.526;10.028;2024-03-22T08:13:12;92090.94;;;11.25;76.21
63493;BME280;49638;47.526;10.028;2024-03-22T08:16:12;92096.22;;;11.25;76.32
63493;BME280;49638;47.526;10.028;2024-03-22T08:19:13;92087.47;;;11.25;76.32
63493;BME280;49638;47.526;10.028;2024-03-22T08:22:13;92090.34;;;11.23;76.21
63493;BME280;49638;47.526;10.028;2024-03-22T08:25:14;92082.34;;;11.18;76.09
63493;BME280;49638;47.526;10.028;2024-03-22T08:28:17;92084.41;;;11.16;75.53
63493;BME280;49638;47.526;10.028;2024-03-22T08:31:17;92090.75;;;11.15;76.29
63493;BME280;49638;47.526;10.028;2024-03-22T08:34:21;92086.50;;;11.14;71.98
63493;BME280;49638;47.526;10.028;2024-03-22T08:37:22;92087.44;;;11.08;75.80
63493;BME280;49638;47.526;10.028;2024-03-22T08:40:22;92077.81;;;11.02;75.96
63493;BME280;49638;47.526;10.028;2024-03-22T08:43:23;92084.03;;;10.96;75.81
63493;BME280;49638;47.526;10.028;2024-03-22T08:46:25;92073.25;;;10.85;76.09
63493;BME280;49638;47.526;10.028;2024-03-22T08:49:28;92092.09;;;10.89;75.92
63493;BME280;49638;47.526;10.028;2024-03-22T08:52:28;92073.41;;;10.79;75.83
63493;BME280;49638;47.526;10.028;2024-03-22T08:55:29;92089.91;;;10.86;75.64
63493;BME280;49638;47.526;10.028;2024-03-22T08:58:29;92066.50;;;10.78;75.50
63493;BME280;49638;47.526;10.028;2024-03-22T09:01:29;92084.97;;;10.89;75.56
63493;BME280;49638;47.526;10.028;2024-03-22T09:04:29;92081.31;;;10.91;75.14
63493;BME280;49638;47.526;10.028;2024-03-22T09:07:30;92074.16;;;10.91;75.10
63493;BME280;49638;47.526;10.028;2024-03-22T09:10:30;92065.50;;;10.96;74.74
63493;BME280;49638;47.526;10.028;2024-03-22T09:13:31;92066.88;;;10.98;74.59
63493;BME280;49638;47.526;10.028;2024-03-22T09:16:33;92064.56;;;11.02;73.82
63493;BME280;49638;47.526;10.028;2024-03-22T09:19:33;92053.75;;;11.03;73.94
63493;BME280;49638;47.526;10.028;2024-03-22T09:22:33;92059.13;;;11.08;73.98
63493;BME280;49638;47.526;10.028;2024-03-22T09:25:34;92054.19;;;11.12;74.21
63493;BME280;49638;47.526;10.028;2024-03-22T09:28:34;92047.16;;;11.18;73.73
63493;BME280;49638;47.526;10.028;2024-03-22T09:31:34;92048.50;;;11.20;73.59
63493;BME280;49638;47.526;10.028;2024-03-22T09:34:35;92052.84;;;11.26;73.21
63493;BME280;49638;47.526;10.028;2024-03-22T09:37:36;92041.69;;;11.24;73.23
63493;BME280;49638;47.526;10.028;2024-03-22T09:40:39;92036.75;;;11.28;69.58
63493;BME280;49638;47.526;10.028;2024-03-22T09:43:39;92037.28;;;11.30;71.98
63493;BME280;49638;47.526;10.028;2024-03-22T09:46:43;92043.47;;;11.35;70.29
63493;BME280;49638;47.526;10.028;2024-03-22T09:49:44;92029.19;;;11.36;70.72
63493;BME280;49638;47.526;10.028;2024-03-22T09:52:48;92032.47;;;11.44;70.07
63493;BME280;49638;47.526;10.028;2024-03-22T09:55:49;92030.72;;;11.49;69.03
63493;BME280;49638;47.526;10.028;2024-03-22T09:58:49;92025.75;;;11.53;68.50
63493;BME280;49638;47.526;10.028;2024-03-22T10:01:50;92018.69;;;11.58;68.11
63493;BME280;49638;47.526;10.028;2024-03-22T10:04:52;92005.94;;;11.55;67.96
63493;BME280;49638;47.526;10.028;2024-03-22T10:07:53;92017.72;;;11.65;67.71
63493;BME280;49638;47.526;10.028;2024-03-22T10:10:54;92015.63;;;11.67;67.32
63493;BME280;49638;47.526;10.028;2024-03-22T10:13:54;92011.44;;;11.71;66.82
63493;BME280;49638;47.526;10.028;2024-03-22T10:16:55;92013.94;;;11.77;67.15
63493;BME280;49638;47.526;10.028;2024-03-22T10:19:56;92006.56;;;11.79;67.09
63493;BME280;49638;47.526;10.028;2024-03-22T10:22:58;91989.31;;;11.77;66.82
63493;BME280;49638;47.526;10.028;2024-03-22T10:25:59;92003.28;;;11.89;66.54
63493;BME280;49638;47.526;10.028;2024-03-22T10:29:00;91995.09;;;11.91;66.02
63493;BME280;49638;47.526;10.028;2024-03-22T10:32:01;91994.59;;;11.94;65.66
63493;BME280;49638;47.526;10.028;2024-03-22T10:35:05;91982.41;;;11.93;64.05
63493;BME280;49638;47.526;10.028;2024-03-22T10:38:07;91988.03;;;11.96;65.39
63493;BME280;49638;47.526;10.028;2024-03-22T10:41:09;91982.56;;;12.03;65.58
63493;BME280;49638;47.526;10.028;2024-03-22T10:44:10;91980.75;;;12.08;65.10
63493;BME280;49638;47.526;10.028;2024-03-22T10:47:12;91962.47;;;12.07;64.50
63493;BME280;49638;47.526;10.028;2024-03-22T10:50:16;91970.84;;;12.21;64.50
63493;BME280;49638;47.526;10.028;2024-03-22T10:53:23;91967.94;;;12.22;61.45
63493;BME280;49638;47.526;10.028;2024-03-22T10:56:25;91959.50;;;12.25;64.25
63493;BME280;49638;47.526;10.028;2024-03-22T10:59:26;91970.19;;;12.30;64.18
63493;BME280;49638;47.526;10.028;2024-03-22T11:02:27;91957.72;;;12.31;63.36
63493;BME280;49638;47.526;10.028;2024-03-22T11:05:28;91953.28;;;12.37;63.34
63493;BME280;49638;47.526;10.028;2024-03-22T11:08:29;91954.41;;;12.41;63.04
63493;BME280;49638;47.526;10.028;2024-03-22T11:11:30;91936.06;;;12.39;62.91
63493;BME280;49638;47.526;10.028;2024-03-22T11:14:37;91950.50;;;12.48;63.21
63493;BME280;49638;47.526;10.028;2024-03-22T11:17:37;91941.75;;;12.48;63.01
63493;BME280;49638;47.526;10.028;2024-03-22T11:20:38;91939.69;;;12.55;62.76
63493;BME280;49638;47.526;10.028;2024-03-22T11:23:38;91936.56;;;12.58;62.90
63493;BME280;49638;47.526;10.028;2024-03-22T11:26:39;91937.94;;;12.66;61.95
63493;BME280;49638;47.526;10.028;2024-03-22T11:29:39;91911.13;;;12.62;61.77
63493;BME280;49638;47.526;10.028;2024-03-22T11:32:41;91923.44;;;12.73;62.01
63493;BME280;49638;47.526;10.028;2024-03-22T11:35:45;91920.34;;;12.82;61.72
63493;BME280;49638;47.526;10.028;2024-03-22T11:38:46;91925.44;;;12.88;61.56
63493;BME280;49638;47.526;10.028;2024-03-22T11:41:49;91913.53;;;12.91;61.57
63493;BME280;49638;47.526;10.028;2024-03-22T11:44:50;91905.59;;;12.91;61.66
63493;BME280;49638;47.526;10.028;2024-03-22T11:47:51;91921.03;;;12.99;61.49
63493;BME280;49638;47.526;10.028;2024-03-22T11:50:51;91911.50;;;13.03;61.31
63493;BME280;49638;47.526;10.028;2024-03-22T11:53:52;91899.88;;;13.09;60.84
63493;BME280;49638;47.526;10.028;2024-03-22T11:56:57;91894.06;;;13.12;59.97
63493;BME280;49638;47.526;10.028;2024-03-22T12:00:01;91888.78;;;13.17;59.17
63493;BME280;49638;47.526;10.028;2024-03-22T12:03:06;91888.66;;;13.29;58.62
63493;BME280;49638;47.526;10.028;2024-03-22T12:06:09;91888.94;;;13.33;59.33
63493;BME280;49638;47.526;10.028;2024-03-22T12:09:09;91885.78;;;13.36;59.29
63493;BME280;49638;47.526;10.028;2024-03-22T12:12:12;91881.28;;;13.41;59.06
63493;BME280;49638;47.526;10.028;2024-03-22T12:15:13;91879.97;;;13.44;59.29
63493;BME280;49638;47.526;10.028;2024-03-22T12:18:13;91862.75;;;13.46;58.93
63493;BME280;49638;47.526;10.028;2024-03-22T12:21:13;91866.81;;;13.59;58.53
63493;BME280;49638;47.526;10.028;2024-03-22T12:24:14;91852.47;;;13.60;58.25
63493;BME280;49638;47.526;10.028;2024-03-22T12:27:14;91861.56;;;13.69;58.34
63493;BME280;49638;47.526;10.028;2024-03-22T12:30:14;91855.22;;;13.76;58.38
63493;BME280;49638;47.526;10.028;2024-03-22T12:33:15;91845.66;;;13.80;58.06
63493;BME280;49638;47.526;10.028;2024-03-22T12:36:16;91835.03;;;13.85;57.78
63493;BME280;49638;47.526;10.028;2024-03-22T12:39:16;91831.88;;;13.88;57.85
63493;BME280;49638;47.526;10.028;2024-03-22T12:42:16;91827.34;;;13.88;57.53
63493;BME280;49638;47.526;10.028;2024-03-22T12:49:14;91825.00;;;13.97;57.79
63493;BME280;49638;47.526;10.028;2024-03-22T12:52:14;91811.22;;;14.00;57.45
63493;BME280;49638;47.526;10.028;2024-03-22T12:55:15;91816.53;;;14.05;57.69
63493;BME280;49638;47.526;10.028;2024-03-22T12:58:15;91805.09;;;14.05;57.52
63493;BME280;49638;47.526;10.028;2024-03-22T13:01:15;91786.22;;;13.96;57.12
63493;BME280;49638;47.526;10.028;2024-03-22T13:04:15;91793.66;;;14.04;57.44
63493;BME280;49638;47.526;10.028;2024-03-22T13:07:17;91796.59;;;14.08;56.90
63493;BME280;49638;47.526;10.028;2024-03-22T13:10:18;91787.31;;;14.10;57.13
63493;BME280;49638;47.526;10.028;2024-03-22T13:13:18;91794.78;;;14.13;57.15
63493;BME280;49638;47.526;10.028;2024-03-22T13:16:19;91784.66;;;14.10;57.06
63493;BME280;49638;47.526;10.028;2024-03-22T13:19:19;91775.88;;;14.15;57.48
63493;BME280;49638;47.526;10.028;2024-03-22T13:22:19;91777.47;;;14.16;57.42
63493;BME280;49638;47.526;10.028;2024-03-22T13:25:20;91765.53;;;14.13;57.07
63493;BME280;49638;47.526;10.028;2024-03-22T13:28:20;91764.72;;;14.08;57.25
63493;BME280;49638;47.526;10.028;2024-03-22T13:31:22;91755.41;;;14.05;57.64
63493;BME280;49638;47.526;10.028;2024-03-22T13:34:22;91760.19;;;14.08;57.86
63493;BME280;49638;47.526;10.028;2024-03-22T13:37:23;91748.50;;;14.09;57.80
63493;BME280;49638;47.526;10.028;2024-03-22T13:40:23;91747.44;;;14.15;58.10
63493;BME280;49638;47.526;10.028;2024-03-22T13:43:25;91740.53;;;14.14;58.16
63493;BME280;49638;47.526;10.028;2024-03-22T13:46:26;91740.53;;;14.19;57.95
63493;BME280;49638;47.526;10.028;2024-03-22T13:49:26;91738.69;;;14.20;57.93
63493;BME280;49638;47.526;10.028;2024-03-22T13:52:26;91731.53;;;14.20;58.07
63493;BME280;49638;47.526;10.028;2024-03-22T13:55:26;91710.78;;;14.07;58.07
63493;BME280;49638;47.526;10.028;2024-03-22T13:58:27;91728.31;;;14.13;58.40
63493;BME280;49638;47.526;10.028;2024-03-22T14:01:27;91725.13;;;14.11;58.37
63493;BME280;49638;47.526;10.028;2024-03-22T14:04:27;91711.56;;;14.08;58.53
63493;BME280;49638;47.526;10.028;2024-03-22T14:07:29;91714.22;;;14.08;58.48
63493;BME280;49638;47.526;10.028;2024-03-22T14:10:30;91700.66;;;14.04;58.33
63493;BME280;49638;47.526;10.028;2024-03-22T14:13:33;91697.47;;;14.07;58.31
63493;BME280;49638;47.526;10.028;2024-03-22T14:16:33;91694.56;;;14.09;58.26
63493;BME280;49638;47.526;10.028;2024-03-22T14:19:34;91692.41;;;14.06;58.26
63493;BME280;49638;47.526;10.028;2024-03-22T14:22:35;91681.53;;;14.02;58.17
63493;BME280;49638;47.526;10.028;2024-03-22T14:25:35;91684.19;;;14.02;58.21
63493;BME280;49638;47.526;10.028;2024-03-22T14:28:35;91674.91;;;14.00;57.99
63493;BME280;49638;47.526;10.028;2024-03-22T14:31:37;91659.72;;;13.95;58.08
63493;BME280;49638;47.526;10.028;2024-03-22T14:34:37;91666.66;;;13.96;58.64
63493;BME280;49638;47.526;10.028;2024-03-22T14:37:38;91660.81;;;13.94;58.60
63493;BME280;49638;47.526;10.028;2024-03-22T14:40:38;91662.13;;;13.91;58.65
63493;BME280;49638;47.526;10.028;2024-03-22T14:43:38;91652.00;;;13.88;58.81
63493;BME280;49638;47.526;10.028;2024-03-22T14:46:38;91654.94;;;13.87;58.75
63493;BME280;49638;47.526;10.028;2024-03-22T14:49:39;91649.63;;;13.87;58.23
63493;BME280;49638;47.526;10.028;2024-03-22T14:52:40;91640.34;;;13.79;58.80
63493;BME280;49638;47.526;10.028;2024-03-22T14:55:40;91648.03;;;13.81;58.91
63493;BME280;49638;47.526;10.028;2024-03-22T14:58:40;91625.44;;;13.68;58.89
63493;BME280;49638;47.526;10.028;2024-03-22T15:01:42;91647.47;;;13.79;59.37
63493;BME280;49638;47.526;10.028;2024-03-22T15:04:43;91623.84;;;13.77;59.15
63493;BME280;49638;47.526;10.028;2024-03-22T15:07:44;91628.13;;;13.83;59.14
63493;BME280;49638;47.526;10.028;2024-03-22T15:10:44;91623.59;;;13.84;59.11
63493;BME280;49638;47.526;10.028;2024-03-22T15:13:45;91629.69;;;13.84;59.41
63493;BME280;49638;47.526;10.028;2024-03-22T15:16:45;91622.53;;;13.80;59.37
63493;BME280;49638;47.526;10.028;2024-03-22T15:19:46;91611.38;;;13.72;59.20
63493;BME280;49638;47.526;10.028;2024-03-22T15:22:46;91615.09;;;13.77;59.28
63493;BME280;49638;47.526;10.028;2024-03-22T15:25:47;91616.16;;;13.76;59.19
63493;BME280;49638;47.526;10.028;2024-03-22T15:28:47;91608.19;;;13.81;58.86
63493;BME280;49638;47.526;10.028;2024-03-22T15:31:49;91607.66;;;13.84;58.81
63493;BME280;49638;47.526;10.028;2024-03-22T15:34:50;91597.03;;;13.84;58.72
63493;BME280;49638;47.526;10.028;2024-03-22T15:37:50;91606.59;;;13.80;58.84
63493;BME280;49638;47.526;10.028;2024-03-22T15:40:50;91586.94;;;13.76;58.26
63493;BME280;49638;47.526;10.028;2024-03-22T15:43:54;91584.00;;;13.82;58.08
63493;BME280;49638;47.526;10.028;2024-03-22T15:46:54;91586.94;;;13.81;57.74
63493;BME280;49638;47.526;10.028;2024-03-22T15:50:00;91594.91;;;13.86;57.85
63493;BME280;49638;47.526;10.028;2024-03-22T15:53:00;91584.81;;;13.78;57.87
63493;BME280;49638;47.526;10.028;2024-03-22T15:56:00;91590.91;;;13.78;57.81